Главная страница
METAR-TAF:

METAR-TAF

Аэропорты :

Атлантик-Сити, Нью-Джерси, США

широта: 39-27-53N, долгота: 074-35-12W, высота над уровнем моря: 23 м

Текущие метеонаблюдения

Эта сводка был подготовлена 39 минут назад, в 00:54 UTC
Ветер 10 Узел от северно-северо-западный с порывами до 18 Узел
Температура -1°C
Влажность 64%
Давление 1020 hPa
Видимость: 16.1 км
ясное небо

METAR: KACY 130054Z 34010G18KT 10SM CLR M01/M07 A3012 RMK AO2 SLP199 T10061072

Время: 20:33 (01:33 UTC)

Прогноз

Эта сводка был подготовлена 1 час и 55 минут назад, в 23:38 UTC
Прогноз действительный с 13-го 00 UTC до 13-го 24 UTC
Ветер 12 Узел от северно-северо-западный
Видимость: 10 км
ясное небо
С 13-го 1300 UTC
Ветер 10 Узел от северно-северо-западный с порывами до 19 Узел
Видимость: 10 км
ясное небо
С 13-го 2300 UTC
Ветер 4 Узел переменных направлений
Видимость: 10 км
ясное небо

TAF: KACY 122338Z 1300/1324 34012KT P6SM SKC FM131300 33010G19KT P6SM SKC FM132300 VRB04KT P6SM SKC

Метеонаблюдения и прогнозы для более 4000 аэропортов (сводки METAR и TAF).

Имеющиеся станции представлены на карте желтыми и красными точками.

Чтобы увидеть название станции, наведите на нее мышь.

Затем щелкните, чтобы увидеть метеонаблюдения и метеопрогнозы.

Управление картой: чтобы увеличить масштаб, щелкните зеленые кнопки с черным крестиком; чтобы уменьшить масштаб, щелкните зеленую кнопку с тире; для просмотра соседних карт щелкайте зеленые стрелки.


METAR-TAF: